Comité directeur de l'aéroclub

Bureau Directeur 2017 :

Suite à l’Assemblée Générale Ordinaire et à l’élection des tiers sortants et de deux nouveaux candidats, une réunion de bureau a eu lieu afin de déterminer l’attribution des fonctions.
Le bureau est désormais composé comme suit :

Président : Michel Richez
Vice-Président : Jean-Pierre Moreau
Trésorier : Thierry Mauberger
Trésorier adjoint : Christophe Giansanti
Secrétaire : Denis Joseph
Secrétaire adjoint : François Bureau
Relation ANEG : Christian Raffaitin
ULM : Yves Point
Membres : Serge Briant, Jean Luc Cerceau, Philippe Fernandes, Marjan Goral, Sylvette Plumé

Statuts de l'aéroclub (2015) : cliquer
Règlement intérieur (2014) : cliquer

Webcam :

Nuit aéronautique

16 Feb 2019

Heure locale,
pour LFDL uniquement.

Lever du soleil aéronautique :07:33
Lever du soleil :08:03
Coucher du soleil :18:24
Coucher du soleil aéronautique :18:54

Metar

LFBI :
2019/02/16 15:00
LFBI 161500Z AUTO 17006KT 120V210 CAVOK 17/04 Q1025 NOSIG
LFBI :
Poitiers, France (LFBI) 46-35N 000-19E 120M
Feb 16, 2019 - 10:00 AM EST / 2019.02.16 1500 UTC
Wind: from the S (170 degrees) at 7 MPH (6 KT) (direction variable):0
Visibility: greater than 7 mile(s):0
Temperature: 62 F (17 C)
Dew Point: 39 F (4 C)
Relative Humidity: 41%
Pressure (altimeter): 30.27 in. Hg (1025 hPa)
ob: LFBI 161500Z AUTO 17006KT 120V210 CAVOK 17/04 Q1025 NOSIG
cycle: 15

Afficher le metar d'une autre station :
Code OACI :

Aéroclub de Loudun


Bellevue
86200 Loudun


Contacter Michel Richez (président)

  • Mail:michel.richez@free.fr
  • Tel:09-50-38-02-06
  • Mobile:06-52-73-09-01



agrandir le plan

Newsletter

Mon e-mail :